Huntington, New York
Current Conditions -  °F | °C
As of 12:18 PM on Friday 24 Oct 2014 (Local Time) from KFRG Reporting Station
Broken Clouds Broken Clouds  
Wind Chill: 14°   Ceiling: 3100
Heat Index: 14°   Visibility: 10mi
Dew Point:   Wind: 12mph
Humidity: 59%   Direction: 340°NNW
Pressure: 29.79"   Gusts: 23mph
Location:  40.87°N, 73.42°W
Report Text: KFRG 241618Z 34010G20KT 10SM BKN031 14/06 A2979 RMK AO2 T01390061
Loading
Personal Weather Stations






























Interactive Weather Map
Tropical Storm Tracking
New forecast layout! Learn more

10-Day Weather Forecast

Advertisements
Track Severe Weather on mobile